Flight Track Log - Related Links

Times and Time Zones

All times are in EDT time to prevent confusion due to time zone crossing. See the AWE1286 flight status page for this flight to view local times or setup timezone preferences in your user account.

Time Position Orientation Groundspeed Altitude Reporting Facility
EDT Latitude Longitude Course Direction KTS MPH feet Rate Location/Type
Sat 10:29:51 AM 39.8328 -75.3055 256° West 188 216 1,900  Level FlightAware ADS-B
Sat 10:30:06 AM 39.8290 -75.3233 254° West 210 242 2,200 2,129 Climbing FlightAware ADS-B
Sat 10:30:22 AM 39.8249 -75.3426 255° West 212 244 3,000 2,786 Climbing FlightAware ADS-B
Sat 10:30:34 AM 39.8216 -75.3573 254° West 218 251 3,500 2,400 Climbing FlightAware ADS-B
Sat 10:30:37 AM 39.8206 -75.3611 251° West 221 254 3,600 1,714 Climbing FlightAware ADS-B
Sat 10:30:41 AM 39.8185 -75.3669 245° Southwest 229 264 3,700 1,500 Climbing FlightAware ADS-B
Sat 10:30:45 AM 39.8169 -75.3707 241° Southwest 234 269 3,800 1,500 Climbing FlightAware ADS-B
Sat 10:30:49 AM 39.8138 -75.3760 233° Southwest 243 280 3,900 1,500 Climbing FlightAware ADS-B
Sat 10:30:53 AM 39.8108 -75.3798 224° Southwest 248 285 4,000 2,400 Climbing FlightAware ADS-B
Sat 10:30:59 AM 39.8050 -75.3854 217° Southwest 253 291 4,300 3,000 Climbing FlightAware ADS-B
Sat 10:31:05 AM 39.7993 -75.3894 208° Southwest 259 298 4,600 3,333 Climbing FlightAware ADS-B
Sat 10:31:08 AM 39.7956 -75.3913 202° Southwest 261 300 4,800 3,000 Climbing FlightAware ADS-B
Sat 10:31:13 AM 39.7892 -75.3935 195° South 264 304 5,000 2,667 Climbing FlightAware ADS-B
Sat 10:31:17 AM 39.7842 -75.3942 186° South 269 310 5,200 2,727 Climbing FlightAware ADS-B
Sat 10:31:24 AM 39.7763 -75.3940 179° South 275 316 5,500 2,800 Climbing FlightAware ADS-B
Sat 10:31:32 AM 39.7655 -75.3930 176° South 277 319 5,900 2,750 Climbing FlightAware ADS-B
Sat 10:31:48 AM 39.7458 -75.3918 177° South 279 321 6,600 2,903 Climbing FlightAware ADS-B
Sat 10:32:03 AM 39.7266 -75.3905 177° South 276 318 7,400 3,200 Climbing FlightAware ADS-B
Sat 10:32:18 AM 39.7072 -75.3889 176° South 276 318 8,200 3,375 Climbing FlightAware ADS-B
Sat 10:32:35 AM 39.6859 -75.3866 175° South 273 314 9,200 3,125 Climbing FlightAware ADS-B
Sat 10:33:06 AM 39.6467 -75.3832 176° South 271 312 10,700 2,656 Climbing FlightAware ADS-B
Sat 10:33:36 AM 39.6076 -75.3810 178° South 291 335 11,900 1,900 Climbing FlightAware ADS-B
Sat 10:34:06 AM 39.5643 -75.3795 178° South 329 379 12,600 2,032 Climbing FlightAware ADS-B
Sat 10:34:38 AM 39.5151 -75.3777 178° South 347 399 14,000 2,613 Climbing FlightAware ADS-B
Sat 10:35:08 AM 39.4665 -75.3760 178° South 355 409 15,300 1,869 Climbing FlightAware ADS-B
Sat 10:35:39 AM 39.4147 -75.3741 178° South 357 411 15,900 590 Climbing FlightAware ADS-B
Sat 10:36:09 AM 39.3647 -75.3727 179° South 361 415 15,900 194 Level FlightAware ADS-B
Sat 10:36:41 AM 39.3121 -75.3707 178° South 353 406 16,100 762 Climbing FlightAware ADS-B
Sat 10:37:12 AM 39.2615 -75.3690 179° South 352 405 16,700 1,091 Climbing FlightAware ADS-B
Sat 10:37:25 AM 39.2402 -75.3681 178° South 356 410 16,900 720 Climbing FlightAware ADS-B
Sat 10:37:37 AM 39.2203 -75.3636 170° South 372 428 17,000  Climbing FlightAware ADS-B
Sat 10:37:52 AM 39.1973 -75.3485 153° Southeast 388 447 16,900 -250 Descending FlightAware ADS-B
Sat 10:38:01 AM 39.1846 -75.3329 136° Southeast 410 472 16,900  Level FlightAware ADS-B
Sat 10:38:07 AM 39.1777 -75.3206 126° Southeast 419 482 16,900  Level FlightAware ADS-B
Sat 10:38:15 AM 39.1711 -75.3044 118° Southeast 431 496 16,900  Level FlightAware ADS-B
Sat 10:38:25 AM 39.1644 -75.2777 108° East 443 510 16,900 136 Level FlightAware ADS-B
Sat 10:38:59 AM 39.1517 -75.1892 100° East 454 522 17,000  Climbing FlightAware ADS-B
Sat 10:39:53 AM 39.1263 -75.0450 103° East 452 520 16,900 424 Descending FlightAware ADS-B
Sat 10:40:24 AM 39.1111 -74.9661 104° East 445 512 17,600 1,429 Climbing FlightAware ADS-B
Sat 10:40:56 AM 39.0948 -74.8845 104° East 453 521 18,400 1,385 Climbing FlightAware ADS-B
Sat 10:41:16 AM 39.0835 -74.8308 105° East 466 536 18,800 1,161 Climbing FlightAware ADS-B
Sat 10:41:27 AM 39.0761 -74.8025 109° East 465 535 19,000 632 Climbing FlightAware ADS-B
Sat 10:41:35 AM 39.0698 -74.7831 113° Southeast 462 532 19,000 400 Level FlightAware ADS-B
Sat 10:42:12 AM 39.0330 -74.7010 120° Southeast 443 510 19,300 960 Climbing FlightAware ADS-B
Sat 10:42:25 AM 39.0162 -74.6677 123° Southeast 447 514 19,800 2,681 Climbing FlightAware ADS-B
Sat 10:42:59 AM 38.9780 -74.5924 123° Southeast 450 518 21,400 3,094 Climbing FlightAware ADS-B
Sat 10:43:29 AM 38.9446 -74.5253 123° Southeast 444 511 23,100 2,500 Climbing FlightAware ADS-B
Sat 10:43:59 AM 38.9103 -74.4571 123° Southeast 460 529 23,900 1,967 Climbing FlightAware ADS-B
Sat 10:44:30 AM 38.8748 -74.3865 123° Southeast 464 534 25,100 2,951 Climbing FlightAware ADS-B
Sat 10:45:00 AM 38.8415 -74.3177 122° Southeast 451 519 26,900 2,418 Climbing FlightAware ADS-B
Sat 10:45:37 AM 38.7985 -74.2322 123° Southeast 460 529 27,800 1,652 Climbing FlightAware ADS-B
Sat 10:46:09 AM 38.7622 -74.1606 123° Southeast 460 529 28,800 1,125 Climbing FlightAware ADS-B
Sat 10:46:41 AM 38.7254 -74.0880 123° Southeast 459 528 29,000 154 Climbing FlightAware ADS-B
Sat 10:47:27 AM 38.6726 -73.9837 123° Southeast 459 528 29,000  Level FlightAware ADS-B
Sat 10:47:57 AM 38.6370 -73.9133 123° Southeast 462 532 29,000  Level FlightAware ADS-B
Sat 10:48:28 AM 38.6013 -73.8429 123° Southeast 462 532 29,000  Level FlightAware ADS-B
Sat 10:49:02 AM 38.5620 -73.7657 123° Southeast 462 532 29,000  Level FlightAware ADS-B
Sat 10:49:52 AM 38.5110 -73.6660 123° Southeast 458 527 29,000  Level FlightAware ADS-B
Sat 10:50:37 AM 38.4560 -73.5580 123° Southeast 465 535 29,000  Level FlightAware ADS-B
Sat 10:51:17 AM 38.4080 -73.4700 125° Southeast 467 537 29,000  Level FlightAware ADS-B
Sat 10:51:57 AM 38.3620 -73.3790 123° Southeast 472 543 29,000  Level FlightAware ADS-B
Sat 10:52:42 AM 38.3070 -73.2700 123° Southeast 474 545 29,000  Level FlightAware ADS-B
Sat 10:53:14 AM 38.2633 -73.1834 123° Southeast 475 547 29,000  Level FlightAware ADS-B
Sat 10:54:07 AM 38.2050 -73.0700 123° Southeast 476 548 29,000  Level FlightAware ADS-B
Sat 10:54:47 AM 38.1610 -72.9830 123° Southeast 476 548 29,000  Level FlightAware ADS-B
Sat 10:55:32 AM 38.1030 -72.8720 124° Southeast 474 545 29,000  Level FlightAware ADS-B
Sat 10:56:12 AM 38.0560 -72.7820 124° Southeast 472 543 29,000  Level FlightAware ADS-B
Sat 10:56:52 AM 38.0070 -72.6880 123° Southeast 470 541 29,000  Level FlightAware ADS-B
Sat 10:57:37 AM 37.9560 -72.5900 123° Southeast 473 544 29,000  Level FlightAware ADS-B
Sat 10:58:12 AM 37.9170 -72.5150 123° Southeast 473 544 29,000  Level FlightAware ADS-B
Sat 10:59:02 AM 37.8660 -72.4160 123° Southeast 473 544 29,000  Level FlightAware ADS-B
Sat 10:59:42 AM 37.8260 -72.3370 123° Southeast 473 544 29,000  Level FlightAware ADS-B
Sat 11:00:22 AM 37.7850 -72.2580 123° Southeast 473 544 29,000  Level FlightAware ADS-B
Sat 11:01:02 AM 37.7450 -72.1790 123° Southeast 473 544 29,000  Level FlightAware ADS-B
Sat 11:01:34 AM 37.5919 -72.2689 123° Southeast 417 480 29,000  Level New York Center
Sat 11:02:34 AM 37.4736 -72.2192 162° South 424 488 29,000  Level New York Center
Sat 11:03:34 AM 37.3553 -72.1725 163° South 442 509 29,000  Level New York Center
Sat 11:04:36 AM 37.2328 -72.1283 164° South 448 516 29,000  Level New York Center
Sat 11:05:36 AM 37.1039 -72.0922 167° South 450 518 29,000  Level New York Center
Sat 11:06:34 AM 36.9894 -72.0564 166° South 450 518 29,000  Level New York Center
Sat 11:07:35 AM 36.8669 -72.0203 167° South 457 526 29,000  Level New York Center
Sat 11:09:00 AM 36.7160 -71.9370 162° South  Level FlightAware Approximate
Sat 11:13:04 AM 37.8667 -72.3833 163° South 467 537 29,000  Level New York Oceanic (ODAPS)
Sat 11:16:00 AM 35.9436 -71.6359 162° South  Level FlightAware Approximate
Sat 11:17:00 AM 35.8332 -71.5934 163° South  Level FlightAware Approximate
Sat 11:18:00 AM 35.7228 -71.5509 163° South  Level FlightAware Approximate
Sat 11:19:00 AM 35.3720 -71.4662 168° South 467 537 29,000  Level FlightAware Transoceanic
Sat 11:20:00 AM 35.2413 -71.4329 168° South 467 537 29,000  Level FlightAware Transoceanic
Sat 11:20:03 AM 35.6333 -71.5333 168° South 447 514 29,000  Level New York Oceanic (ODAPS)
Sat 11:21:00 AM 35.1106 -71.3996 168° South 467 537 29,000  Level FlightAware Transoceanic
Sat 11:22:00 AM 34.9799 -71.3664 168° South 467 537 29,000  Level FlightAware Transoceanic
Sat 11:23:00 AM 34.8492 -71.3334 168° South 467 537 29,000  Level FlightAware Transoceanic
Sat 11:24:00 AM 34.7185 -71.3004 168° South 467 537 29,000  Level FlightAware Transoceanic
Sat 11:25:00 AM 34.5877 -71.2676 168° South 467 537 29,000  Level FlightAware Transoceanic
Sat 11:26:00 AM 34.4857 -71.2420 168° South 447 514 29,000  Level FlightAware Transoceanic
Sat 11:27:00 AM 34.3581 -71.2101 168° South 447 514 29,000  Level FlightAware Transoceanic
Sat 11:28:00 AM 34.2305 -71.1784 168° South 447 514 29,000  Level FlightAware Transoceanic
Sat 11:29:00 AM 34.1030 -71.1467 168° South 447 514 29,000  Level FlightAware Transoceanic
Sat 11:30:00 AM 33.9754 -71.1151 168° South 447 514 29,000  Level FlightAware Transoceanic
Sat 11:31:00 AM 33.8478 -71.0836 168° South 447 514 29,000  Level FlightAware Transoceanic
Sat 11:32:00 AM 33.7202 -71.0522 168° South 447 514 29,000  Level FlightAware Transoceanic
Sat 11:33:00 AM 33.5926 -71.0209 168° South 447 514 29,000  Level FlightAware Transoceanic
Sat 11:34:00 AM 33.4650 -70.9897 168° South 447 514 29,000  Level FlightAware Transoceanic
Sat 11:35:00 AM 33.3374 -70.9586 169° South 447 514 29,000  Level FlightAware Transoceanic
Sat 11:36:00 AM 33.2097 -70.9276 169° South 447 514 29,000  Level FlightAware Transoceanic
Sat 11:37:00 AM 33.0821 -70.8966 169° South 447 514 29,000  Level FlightAware Transoceanic
Sat 11:38:00 AM 32.9544 -70.8658 169° South 447 514 29,000  Level FlightAware Transoceanic
Sat 11:38:59 AM 33.6833 -71.0333 169° South 464 534 29,000  Level New York Oceanic (ODAPS)
Sat 11:39:00 AM 32.8268 -70.8350 169° South 447 514 29,000  Level FlightAware Transoceanic
Sat 11:40:00 AM 32.6991 -70.8044 169° South 447 514 29,000  Level FlightAware Transoceanic
Sat 11:41:00 AM 32.5715 -70.7738 169° South 447 514 29,000  Level FlightAware Transoceanic
Sat 11:42:00 AM 32.4438 -70.7433 169° South 447 514 29,000  Level FlightAware Transoceanic
Sat 11:43:00 AM 32.3161 -70.7129 169° South 447 514 29,000  Level FlightAware Transoceanic
Sat 11:44:00 AM 32.1884 -70.6825 169° South 447 514 29,000  Level FlightAware Transoceanic
Sat 11:45:00 AM 32.0422 -70.6431 169° South 464 534 29,000  Level FlightAware Transoceanic
Sat 11:46:00 AM 31.9160 -70.6137 169° South 464 534 29,000  Level FlightAware Transoceanic
Sat 11:47:00 AM 31.7897 -70.5844 169° South 464 534 29,000  Level FlightAware Transoceanic
Sat 11:48:00 AM 31.6634 -70.5551 169° South 464 534 29,000  Level FlightAware Transoceanic
Sat 11:49:00 AM 31.5371 -70.5259 169° South 464 534 29,000  Level FlightAware Transoceanic
Sat 11:50:00 AM 31.4107 -70.4968 169° South 464 534 29,000  Level FlightAware Transoceanic
Sat 11:51:00 AM 31.2844 -70.4678 169° South 464 534 29,000  Level FlightAware Transoceanic
Sat 11:52:00 AM 31.1581 -70.4388 169° South 464 534 29,000  Level FlightAware Transoceanic
Sat 11:53:00 AM 31.0318 -70.4099 169° South 464 534 29,000  Level FlightAware Transoceanic
Sat 11:54:00 AM 30.9054 -70.3811 169° South 464 534 29,000  Level FlightAware Transoceanic
Sat 11:55:00 AM 30.7791 -70.3524 169° South 464 534 29,000  Level FlightAware Transoceanic
Sat 11:56:00 AM 30.6527 -70.3237 169° South 464 534 29,000  Level FlightAware Transoceanic
Sat 11:57:00 AM 30.5264 -70.2952 169° South 464 534 29,000  Level FlightAware Transoceanic
Sat 11:58:00 AM 30.4000 -70.2667 169° South 464 534 29,000  Level FlightAware Transoceanic
Sat 11:59:00 AM 30.2651 -70.2360 169° South 464 534 29,000  Level FlightAware Transoceanic
Sat 12:00:00 PM 30.1302 -70.2055 169° South 464 534 29,000  Level FlightAware Transoceanic
Sat 12:01:00 PM 29.9954 -70.1750 169° South 464 534 29,000  Level FlightAware Transoceanic
Sat 12:02:00 PM 29.8605 -70.1446 169° South 464 534 29,000  Level FlightAware Transoceanic
Sat 12:02:20 PM 30.4000 -70.2667 169° South 492 566 29,000  Level New York Oceanic (ODAPS)
Sat 12:03:00 PM 29.7256 -70.1143 169° South 464 534 29,000  Level FlightAware Transoceanic
Sat 12:04:00 PM 29.5907 -70.0840 169° South 464 534 29,000  Level FlightAware Transoceanic
Sat 12:05:00 PM 29.4557 -70.0539 169° South 464 534 29,000  Level FlightAware Transoceanic
Sat 12:06:00 PM 29.3208 -70.0238 169° South 464 534 29,000  Level FlightAware Transoceanic
Sat 12:07:00 PM 29.1859 -69.9938 169° South 464 534 29,000  Level FlightAware Transoceanic
Sat 12:08:00 PM 28.9160 -69.9340 169° South 492 566 29,000  Level FlightAware Transoceanic
Sat 12:09:00 PM 28.7810 -69.9043 169° South 492 566 29,000  Level FlightAware Transoceanic
Sat 12:10:00 PM 28.6461 -69.8746 169° South 492 566 29,000  Level FlightAware Transoceanic
Sat 12:11:00 PM 28.5111 -69.8450 169° South 492 566 29,000  Level FlightAware Transoceanic
Sat 12:12:00 PM 28.3762 -69.8154 169° South 492 566 29,000  Level FlightAware Transoceanic
Sat 12:13:00 PM 28.2412 -69.7860 169° South 492 566 29,000  Level FlightAware Transoceanic
Sat 12:14:00 PM 28.1062 -69.7566 169° South 492 566 29,000  Level FlightAware Transoceanic
Sat 12:15:00 PM 27.9712 -69.7273 169° South 492 566 29,000  Level FlightAware Transoceanic
Sat 12:16:00 PM 27.8362 -69.6981 169° South 492 566 29,000  Level FlightAware Transoceanic
Sat 12:17:00 PM 27.7012 -69.6689 169° South 492 566 29,000  Level FlightAware Transoceanic
Sat 12:18:00 PM 27.5662 -69.6398 169° South 492 566 29,000  Level FlightAware Transoceanic
Sat 12:19:00 PM 27.4312 -69.6108 169° South 492 566 29,000  Level FlightAware Transoceanic
Sat 12:20:00 PM 27.2962 -69.5818 169° South 492 566 29,000  Level FlightAware Transoceanic
Sat 12:21:00 PM 27.1612 -69.5529 169° South 492 566 29,000  Level FlightAware Transoceanic
Sat 12:22:00 PM 27.0261 -69.5241 169° South 492 566 29,000  Level FlightAware Transoceanic
Sat 12:23:00 PM 26.8911 -69.4954 169° South 492 566 29,000  Level FlightAware Transoceanic
Sat 12:24:00 PM 26.7561 -69.4667 169° South 492 566 29,000  Level FlightAware Transoceanic
Sat 12:25:00 PM 26.6210 -69.4381 169° South 492 566 29,000  Level FlightAware Transoceanic
Sat 12:26:00 PM 26.4860 -69.4096 169° South 492 566 29,000  Level FlightAware Transoceanic
Sat 12:27:00 PM 26.3509 -69.3811 169° South 492 566 29,000  Level FlightAware Transoceanic
Sat 12:28:00 PM 26.2158 -69.3527 169° South 492 566 29,000  Level FlightAware Transoceanic
Sat 12:29:00 PM 26.0808 -69.3244 169° South 492 566 29,000  Level FlightAware Transoceanic
Sat 12:30:00 PM 25.9457 -69.2961 169° South 492 566 29,000  Level FlightAware Transoceanic
Sat 12:31:00 PM 25.8106 -69.2679 169° South 492 566 29,000  Level FlightAware Transoceanic
Sat 12:32:00 PM 25.6755 -69.2398 169° South 492 566 29,000  Level FlightAware Transoceanic
Sat 12:33:00 PM 25.5404 -69.2117 169° South 492 566 29,000  Level FlightAware Transoceanic
Sat 12:34:00 PM 25.4053 -69.1837 169° South 492 566 29,000  Level FlightAware Transoceanic
Sat 12:35:00 PM 25.2702 -69.1557 169° South 492 566 29,000  Level FlightAware Transoceanic
Sat 12:36:00 PM 25.1351 -69.1278 169° South 492 566 29,000  Level FlightAware Transoceanic
Sat 12:37:00 PM 25.0000 -69.1000 167° South 492 566 29,000  Level FlightAware Transoceanic
Sat 12:38:00 PM 24.8683 -69.0672 167° South 492 566 29,000  Level FlightAware Transoceanic
Sat 12:39:00 PM 24.7367 -69.0345 167° South 492 566 29,000  Level FlightAware Transoceanic
Sat 12:40:00 PM 24.6050 -69.0019 167° South 492 566 29,000  Level FlightAware Transoceanic
Sat 12:41:00 PM 24.4733 -68.9693 167° South 492 566 29,000  Level FlightAware Transoceanic
Sat 12:41:28 PM 24.5633 -68.9700 167° South 474 545 29,000  Level Miami Center
Sat 12:42:00 PM 24.3416 -68.9369 167° South 492 566 29,000  Level FlightAware Transoceanic
Sat 12:42:28 PM 24.4236 -68.9333 167° South 494 568 29,000  Level Miami Center
Sat 12:43:00 PM 24.2099 -68.9044 167° South 492 566 29,000  Level FlightAware Transoceanic
Sat 12:43:28 PM 24.2950 -68.9050 169° South 488 562 29,000  Level Miami Center
Sat 12:44:00 PM 24.0782 -68.8721 167° South 492 566 29,000  Level FlightAware Transoceanic
Sat 12:44:28 PM 24.1617 -68.8683 166° South 488 562 29,000  Level Miami Center
Sat 12:45:00 PM 23.9464 -68.8398 167° South 492 566 29,000  Level FlightAware Transoceanic
Sat 12:45:28 PM 24.0181 -68.8342 168° South 488 562 29,000  Level Miami Center
Sat 12:46:00 PM 23.8147 -68.8075 167° South 492 566 29,000  Level FlightAware Transoceanic
Sat 12:46:28 PM 23.9042 -68.8097 169° South 488 562 29,000  Level Miami Center
Sat 12:47:28 PM 23.7689 -68.7753 167° South 483 556 29,000 50 Level Miami Center
Sat 12:48:28 PM 23.6397 -68.7428 167° South 483 556 29,100 1,350 Climbing Miami Center
Sat 12:49:28 PM 23.5111 -68.7128 168° South 482 555 31,700 2,150 Climbing Miami Center
Sat 12:50:28 PM 23.3778 -68.6783 167° South 482 555 33,400 1,550 Climbing Miami Center
Sat 12:51:28 PM 23.2489 -68.6481 168° South 474 545 34,800 800 Climbing Miami Center
Sat 12:52:28 PM 23.1119 -68.6186 169° South 487 560 35,000 100 Climbing Miami Center
Sat 12:53:28 PM 22.9764 -68.5822 166° South 496 571 35,000 200 Level Miami Center
Sat 12:54:28 PM 22.8456 -68.5525 168° South 486 559 35,400 750 Climbing Miami Center
Sat 12:55:28 PM 22.7128 -68.5228 168° South 486 559 36,500 800 Climbing Miami Center
Sat 12:56:28 PM 22.5753 -68.4889 167° South 497 572 37,000 250 Climbing Miami Center
Sat 12:57:28 PM 22.4447 -68.4636 170° South 503 579 37,000  Level Miami Center
Sat 12:58:28 PM 22.3081 -68.4389 170° South 491 565 37,000  Level Miami Center
Sat 12:59:28 PM 22.1794 -68.4114 169° South 484 557 37,000  Level Miami Center
Sat 01:00:28 PM 22.0506 -68.3817 168° South 484 557 37,000  Level Miami Center
Sat 01:01:28 PM 21.9178 -68.3522 168° South 477 549 37,000  Level Miami Center
Sat 01:02:28 PM 21.7869 -68.3206 167° South 477 549 37,000  Level Miami Center
Sat 01:03:28 PM 21.6583 -68.2908 168° South 477 549 37,000  Level Miami Center
Sat 01:04:28 PM 21.5231 -68.2594 168° South 484 557 37,000  Level Miami Center
Sat 01:05:28 PM 21.3778 -68.2286 169° South 479 551 37,000  Level Miami Center
Sat 01:06:28 PM 21.2406 -68.1975 168° South 491 565 37,000  Level Miami Center
Sat 01:07:28 PM 21.1219 -68.1608 164° South 485 558 37,000  Level Miami Center
Sat 01:13:27 PM 20.5600 -67.5670 164° South 471 542 37,000  Level FlightAware ADS-B
Sat 01:14:07 PM 20.5000 -67.4970 132° Southeast 469 540 37,000  Level FlightAware ADS-B
Sat 01:14:52 PM 20.4330 -67.4190 133° Southeast 467 537 37,000  Level FlightAware ADS-B
Sat 01:15:27 PM 20.3850 -67.3620 132° Southeast 467 537 37,000  Level FlightAware ADS-B
Sat 01:16:07 PM 20.3350 -67.3040 133° Southeast 467 537 37,000  Level FlightAware ADS-B
Sat 01:16:57 PM 20.2740 -67.2310 132° Southeast 467 537 37,000 -764 Level FlightAware ADS-B
Sat 01:17:02 PM 20.2870 -67.1730 77° East 472 543 36,300 -2,133 Descending FlightAware ADS-B
Sat 01:17:42 PM 20.2880 -67.0810 89° East 472 543 35,400 -1,453 Descending FlightAware ADS-B
Sat 01:18:37 PM 20.2890 -66.9490 90° East 470 541 34,000 -1,400 Descending FlightAware ADS-B
Sat 01:19:12 PM 20.2890 -66.8740 90° East 466 536 33,300 -1,309 Descending FlightAware ADS-B
Sat 01:19:32 PM 20.2750 -66.8280 108° East 460 529 32,800 -1,500 Descending FlightAware ADS-B
Sat 01:20:12 PM 20.2210 -66.7590 130° Southeast 461 531 31,800 -1,350 Descending FlightAware ADS-B
Sat 01:20:52 PM 20.1560 -66.7010 140° Southeast 463 533 31,000 -565 Descending FlightAware ADS-B
Sat 01:21:37 PM 20.0870 -66.6410 141° Southeast 460 529 31,000  Level FlightAware ADS-B
Sat 01:22:17 PM 20.0170 -66.5790 140° Southeast 463 533 31,000  Level FlightAware ADS-B
Sat 01:22:57 PM 19.9510 -66.5210 140° Southeast 467 537 31,000  Level FlightAware ADS-B
Sat 01:23:42 PM 19.8720 -66.4520 141° Southeast 469 540 31,000  Level FlightAware ADS-B
Sat 01:24:22 PM 19.8040 -66.3920 140° Southeast 471 542 31,000  Level FlightAware ADS-B
Sat 01:25:07 PM 19.7310 -66.3280 140° Southeast 472 543 31,000  Level FlightAware ADS-B
Sat 01:25:47 PM 19.6630 -66.2690 141° Southeast 473 544 31,000  Level FlightAware ADS-B
Sat 01:26:27 PM 19.5950 -66.2100 141° Southeast 473 544 31,000 -71 Level FlightAware ADS-B
Sat 01:27:12 PM 19.5180 -66.1420 140° Southeast 469 540 30,900 -706 Descending FlightAware ADS-B
Sat 01:27:52 PM 19.4500 -66.0830 141° Southeast 472 543 30,000 -1,482 Descending FlightAware ADS-B
Sat 01:28:37 PM 19.3760 -66.0190 141° Southeast 472 543 28,800 -2,188 Descending FlightAware ADS-B
Sat 01:29:17 PM 19.3080 -65.9600 141° Southeast 469 540 26,900 -2,682 Descending FlightAware ADS-B
Sat 01:30:02 PM 19.2320 -65.8940 141° Southeast 455 524 25,000 -2,471 Descending FlightAware ADS-B
Sat 01:30:42 PM 19.1660 -65.8380 141° Southeast 444 511 23,400 -2,325 Descending FlightAware ADS-B
Sat 01:31:22 PM 19.1050 -65.7840 140° Southeast 431 496 21,900 -2,329 Descending FlightAware ADS-B
Sat 01:32:07 PM 19.0370 -65.7260 141° Southeast 419 482 20,100 -2,329 Descending FlightAware ADS-B
Sat 01:32:47 PM 18.9790 -65.6750 140° Southeast 407 468 18,600 -2,400 Descending FlightAware ADS-B
Sat 01:33:32 PM 18.9130 -65.6190 141° Southeast 400 460 16,700 -3,035 Descending FlightAware ADS-B
Sat 01:34:12 PM 18.8530 -65.5670 141° Southeast 410 472 14,300 -3,150 Descending FlightAware ADS-B
Sat 01:34:52 PM 18.7940 -65.5170 141° Southeast 403 464 12,500 -2,259 Descending FlightAware ADS-B
Sat 01:35:37 PM 18.7310 -65.4640 141° Southeast 383 441 11,100 -1,482 Descending FlightAware ADS-B
Sat 01:36:17 PM 18.6780 -65.4180 141° Southeast 352 405 10,400 -525 Descending FlightAware ADS-B
Sat 01:36:57 PM 18.6340 -65.3800 141° Southeast 348 400 10,400  Level FlightAware ADS-B
Sat 01:37:37 PM 18.5920 -65.3430 140° Southeast 348 400 10,400  Level FlightAware ADS-B
Sat 01:38:17 PM 18.5500 -65.3050 139° Southeast 348 400 10,400 -2,080 Level FlightAware ADS-B
Sat 01:38:52 PM 18.4860 -65.3180 191° South 274 315 7,800 -2,200 Descending FlightAware ADS-B
Sat 01:40:17 PM 18.3810 -65.3020 172° South 268 308 6,000 -1,263 Descending FlightAware ADS-B
Sat 01:40:27 PM 18.3700 -65.3000 170° South 267 307 5,800 -1,440 Descending FlightAware ADS-B
Sat 01:40:42 PM 18.3520 -65.2930 160° South 259 298 5,400 -1,600 Descending FlightAware ADS-B
Sat 01:40:57 PM 18.3390 -65.2820 141° Southeast 253 291 5,000 -1,600 Descending FlightAware ADS-B
Sat 01:41:12 PM 18.3290 -65.2680 127° Southeast 248 285 4,600 -764 Descending FlightAware ADS-B
Sat 01:41:52 PM 18.3090 -65.2280 118° Southeast 241 277 4,300 -1,040 Descending FlightAware ADS-B
Sat 01:42:27 PM 18.3167 -65.1667 118° Southeast 210 242 3,300 -1,263 Descending San Juan Center
Sat 01:43:27 PM 18.3167 -65.1000 90° East 190 219 2,300 -1,000 Descending San Juan Center

Login

Don't have an account? Register now (free) for customized features, flight alerts, and more!